Terminal Aerodrome Forecast
Issued by NWS Green Bay, WI

Home | Current Version | Previous Version | Text Only | Print | Product List | Glossary Off
Versions: 1 2 3 4 5 6 7 8 9 10 11 12 13 14 15 16 17 18 19 20 21 22 23 24 25 26 27 28 29 30 31 32 33 34 35 36 37 38

925
FTUS43 KGRB 051135
TAFGRB
TAF
KGRB 051135Z 0512/0612 29006KT P6SM SCT050
      TEMPO 0512/0514 -SHSN SCT025 BKN050
     FM051800 26005KT P6SM SCT100 BKN200
     FM052100 24005KT P6SM BKN070
     FM060500 22005KT 6SM -SN SCT025 BKN050=

USA.gov is the U.S. government's official web portal to all federal, state and local government web resources and services.